Time;durP1;ratioP1;P1;durP2;ratioP2;P2;SDS_P1;SDS_P2;PMS_P1;PMS_P2;Temp;Humidity;BMP_temperature;BMP_pressure;BME280_temperature;BME280_humidity;BME280_pressure;Samples;Min_cycle;Max_cycle;Signal;HPM_P1;HPM_P2
2023/03/24 00:00:35;;;;;;;5.32;2.10;;;;;;;;;;10531997;27;20039;-77
2023/03/24 00:05:42;;;;;;;4.47;2.15;;;;;;;;;;10548900;27;20039;-76
2023/03/24 00:10:47;;;;;;;4.50;1.85;;;;;;;;;;10561257;27;20047;-76
2023/03/24 00:15:51;;;;;;;4.18;1.80;;;;;;;;;;10537389;27;20111;-75
2023/03/24 00:21:00;;;;;;;6.13;2.70;;;;;;;;;;10553936;27;20395;-77
2023/03/24 00:26:04;;;;;;;2.42;1.77;;;;;;;;;;10553621;27;20044;-76
2023/03/24 00:31:08;;;;;;;2.50;1.50;;;;;;;;;;10554078;27;20028;-75
2023/03/24 00:36:14;;;;;;;3.40;1.35;;;;;;;;;;10533838;27;20375;-76
2023/03/24 00:47:24;;;;;;;3.17;1.83;;;;;;;;;;10554512;27;20508;-74
2023/03/24 00:52:32;;;;;;;4.60;2.38;;;;;;;;;;10528536;27;20524;-74
2023/03/24 00:57:36;;;;;;;2.15;1.35;;;;;;;;;;10565564;27;20043;-76
2023/03/24 01:02:45;;;;;;;1.92;1.30;;;;;;;;;;10544228;28;20041;-75
2023/03/24 01:07:51;;;;;;;4.43;2.70;;;;;;;;;;10559691;28;20054;-75
2023/03/24 01:12:55;;;;;;;6.45;2.90;;;;;;;;;;10551145;27;20161;-77
2023/03/24 01:18:00;;;;;;;5.10;1.98;;;;;;;;;;10533600;28;20036;-74
2023/03/24 01:23:06;;;;;;;5.10;2.15;;;;;;;;;;10541813;28;20031;-76
2023/03/24 01:28:10;;;;;;;3.25;2.10;;;;;;;;;;10561476;27;20031;-77
2023/03/24 01:33:13;;;;;;;4.27;1.63;;;;;;;;;;10556294;28;20044;-76
2023/03/24 01:38:28;;;;;;;6.80;2.80;;;;;;;;;;10536626;27;20078;-75
2023/03/24 01:43:43;;;;;;;4.63;1.95;;;;;;;;;;10544582;28;20519;-76
2023/03/24 01:48:49;;;;;;;4.63;2.38;;;;;;;;;;10559183;28;20040;-76
2023/03/24 01:53:58;;;;;;;4.18;2.30;;;;;;;;;;10557724;28;20048;-75
2023/03/24 01:59:03;;;;;;;7.43;2.72;;;;;;;;;;10537405;28;20412;-76
2023/03/24 02:04:07;;;;;;;5.47;2.47;;;;;;;;;;10553348;28;20036;-76
2023/03/24 02:09:14;;;;;;;5.63;2.80;;;;;;;;;;10556450;28;20042;-76
2023/03/24 02:14:18;;;;;;;4.70;1.85;;;;;;;;;;10552786;28;20039;-77
2023/03/24 02:19:38;;;;;;;6.22;2.30;;;;;;;;;;10538463;28;20040;-78
2023/03/24 02:24:59;;;;;;;3.42;1.83;;;;;;;;;;10514796;28;20052;-76
2023/03/24 02:30:22;;;;;;;4.30;2.58;;;;;;;;;;10563366;27;20070;-75
2023/03/24 02:35:36;;;;;;;6.47;2.45;;;;;;;;;;10566303;27;20043;-75
2023/03/24 02:40:44;;;;;;;3.40;2.28;;;;;;;;;;10544091;27;20492;-74
2023/03/24 02:45:54;;;;;;;4.70;1.83;;;;;;;;;;10564084;27;20079;-76
2023/03/24 02:51:04;;;;;;;2.80;1.73;;;;;;;;;;10544741;27;20059;-76
2023/03/24 02:56:11;;;;;;;3.60;2.10;;;;;;;;;;10540800;27;20035;-76
2023/03/24 03:01:19;;;;;;;7.72;2.10;;;;;;;;;;10541825;27;20387;-78
2023/03/24 03:06:25;;;;;;;2.13;1.60;;;;;;;;;;10541205;27;20043;-77
2023/03/24 03:11:30;;;;;;;4.68;2.25;;;;;;;;;;10559901;27;20031;-77
2023/03/24 03:16:37;;;;;;;4.88;2.50;;;;;;;;;;10556357;27;20519;-76
2023/03/24 03:21:42;;;;;;;4.70;2.38;;;;;;;;;;10560940;27;20097;-76
2023/03/24 03:26:48;;;;;;;4.80;2.38;;;;;;;;;;10568028;27;20055;-76
2023/03/24 03:31:58;;;;;;;7.63;1.88;;;;;;;;;;10536502;27;20493;-76
2023/03/24 03:37:06;;;;;;;4.40;2.35;;;;;;;;;;10562375;27;20047;-75
2023/03/24 03:42:11;;;;;;;5.13;2.28;;;;;;;;;;10533810;28;20404;-75
2023/03/24 03:47:14;;;;;;;4.60;2.28;;;;;;;;;;10556505;27;20134;-74
2023/03/24 03:52:17;;;;;;;;;;;;;;;;;;10564599;27;20370;-74
2023/03/24 03:57:22;;;;;;;4.35;2.80;;;;;;;;;;10558612;27;19924;-74
2023/03/24 04:02:30;;;;;;;4.90;2.20;;;;;;;;;;10555482;27;20412;-76
2023/03/24 04:07:38;;;;;;;5.45;2.72;;;;;;;;;;10562527;28;20476;-75
2023/03/24 04:12:59;;;;;;;5.00;1.88;;;;;;;;;;10541980;28;20085;-76
2023/03/24 04:18:15;;;;;;;5.35;2.63;;;;;;;;;;10554002;27;20067;-77
2023/03/24 04:23:26;;;;;;;5.13;1.85;;;;;;;;;;10558975;27;20039;-77
2023/03/24 04:28:39;;;;;;;3.58;1.63;;;;;;;;;;10561340;27;20404;-77
2023/03/24 04:33:49;;;;;;;4.82;2.20;;;;;;;;;;10546021;27;20038;-77
2023/03/24 04:38:55;;;;;;;3.30;1.75;;;;;;;;;;10535605;27;20054;-77
2023/03/24 04:44:00;;;;;;;5.05;2.42;;;;;;;;;;10555645;28;20050;-76
2023/03/24 04:49:05;;;;;;;3.15;1.88;;;;;;;;;;10541014;27;20036;-77
2023/03/24 04:54:10;;;;;;;5.90;3.00;;;;;;;;;;10552448;28;20482;-75
2023/03/24 04:59:17;;;;;;;4.72;2.50;;;;;;;;;;10537254;28;20051;-75
2023/03/24 05:04:22;;;;;;;5.95;2.75;;;;;;;;;;10538804;27;20048;-76
2023/03/24 05:09:25;;;;;;;2.88;1.90;;;;;;;;;;10559338;27;20062;-75
2023/03/24 05:14:31;;;;;;;7.60;3.30;;;;;;;;;;10538276;27;20131;-75
2023/03/24 05:19:36;;;;;;;5.35;2.78;;;;;;;;;;10559580;27;20038;-76
2023/03/24 05:24:39;;;;;;;4.95;2.90;;;;;;;;;;10535443;27;20050;-76
2023/03/24 05:29:52;;;;;;;5.28;2.65;;;;;;;;;;10533724;27;20039;-76
2023/03/24 05:34:55;;;;;;;3.15;1.88;;;;;;;;;;10551709;28;20051;-75
2023/03/24 05:40:09;;;;;;;7.78;3.70;;;;;;;;;;10535821;28;20035;-77
2023/03/24 05:45:24;;;;;;;7.20;2.80;;;;;;;;;;10541108;28;20074;-75
2023/03/24 05:50:28;;;;;;;5.90;2.40;;;;;;;;;;10560587;28;20040;-74
2023/03/24 05:55:31;;;;;;;5.20;2.40;;;;;;;;;;10535123;28;20043;-75
2023/03/24 06:00:35;;;;;;;3.17;2.10;;;;;;;;;;10559597;28;20042;-76
2023/03/24 06:05:39;;;;;;;3.45;1.95;;;;;;;;;;10568012;28;20046;-74
2023/03/24 06:10:43;;;;;;;4.60;2.38;;;;;;;;;;10569490;27;20027;-74
2023/03/24 06:15:48;;;;;;;5.07;2.90;;;;;;;;;;10569615;27;20061;-78
2023/03/24 06:20:55;;;;;;;3.95;1.90;;;;;;;;;;10568355;27;20039;-75
2023/03/24 06:26:00;;;;;;;7.53;2.97;;;;;;;;;;10570698;27;20469;-76
2023/03/24 06:31:06;;;;;;;4.45;2.88;;;;;;;;;;10546438;27;20240;-75
2023/03/24 06:36:10;;;;;;;6.93;3.60;;;;;;;;;;10545632;27;20040;-75
2023/03/24 06:41:12;;;;;;;6.75;3.42;;;;;;;;;;10558064;27;20135;-75
2023/03/24 06:46:17;;;;;;;7.37;3.30;;;;;;;;;;10555403;27;20059;-78
2023/03/24 06:51:20;;;;;;;7.57;3.95;;;;;;;;;;10562014;27;20047;-77
2023/03/24 06:56:24;;;;;;;10.90;3.58;;;;;;;;;;10539717;27;20067;-76
2023/03/24 07:01:28;;;;;;;10.03;4.73;;;;;;;;;;10554696;27;21135;-77
2023/03/24 07:06:33;;;;;;;9.80;4.50;;;;;;;;;;10549340;28;20044;-77
2023/03/24 07:11:45;;;;;;;7.72;3.63;;;;;;;;;;10555079;27;20120;-76
2023/03/24 07:16:52;;;;;;;10.45;4.53;;;;;;;;;;10551796;28;20151;-77
2023/03/24 07:21:55;;;;;;;12.40;4.18;;;;;;;;;;10550343;28;20766;-76
2023/03/24 07:26:59;;;;;;;8.70;4.20;;;;;;;;;;10537675;28;20135;-76
2023/03/24 07:32:04;;;;;;;10.68;4.03;;;;;;;;;;10549595;28;20043;-77
2023/03/24 07:37:08;;;;;;;6.43;3.58;;;;;;;;;;10556406;28;20403;-76
2023/03/24 07:42:11;;;;;;;8.95;3.75;;;;;;;;;;10550856;28;20032;-74
2023/03/24 07:47:15;;;;;;;;;;;;;;;;;;10538693;28;20158;-75
2023/03/24 07:52:19;;;;;;;11.18;4.10;;;;;;;;;;10554592;28;20304;-75
2023/03/24 07:57:23;;;;;;;6.80;3.47;;;;;;;;;;10552685;28;20070;-77
2023/03/24 08:02:26;;;;;;;7.33;4.07;;;;;;;;;;10501786;27;1104749;-75
2023/03/24 08:07:31;;;;;;;7.47;4.10;;;;;;;;;;10553630;27;20536;-77
2023/03/24 08:12:34;;;;;;;9.18;4.25;;;;;;;;;;10552977;27;20574;-76
2023/03/24 08:17:38;;;;;;;;;;;;;;;;;;10537027;27;20059;-77
2023/03/24 08:22:43;;;;;;;5.85;2.60;;;;;;;;;;10547357;27;19934;-76
2023/03/24 08:27:47;;;;;;;8.43;3.13;;;;;;;;;;10557175;27;20048;-76
2023/03/24 08:32:53;;;;;;;6.10;2.70;;;;;;;;;;10553699;27;20490;-76
2023/03/24 08:38:00;;;;;;;5.32;3.10;;;;;;;;;;10552192;27;20135;-76
2023/03/24 08:43:07;;;;;;;4.78;2.78;;;;;;;;;;10557404;27;20488;-75
2023/03/24 08:48:13;;;;;;;6.97;2.88;;;;;;;;;;10554055;27;20431;-75
2023/03/24 08:53:18;;;;;;;6.72;3.08;;;;;;;;;;10538838;27;20126;-76
2023/03/24 08:58:23;;;;;;;3.65;1.90;;;;;;;;;;10530809;27;20154;-76
2023/03/24 09:03:27;;;;;;;4.55;2.60;;;;;;;;;;10557189;27;20048;-76
2023/03/24 09:08:31;;;;;;;6.70;2.90;;;;;;;;;;10530911;27;20147;-76
2023/03/24 09:13:35;;;;;;;5.78;2.58;;;;;;;;;;10539147;27;20293;-77
2023/03/24 09:18:38;;;;;;;6.43;3.10;;;;;;;;;;10528327;27;20039;-78
2023/03/24 09:23:48;;;;;;;3.35;2.03;;;;;;;;;;10549242;27;20042;-77
2023/03/24 09:28:54;;;;;;;2.78;1.65;;;;;;;;;;10535749;28;20085;-75
2023/03/24 09:34:08;;;;;;;4.35;2.50;;;;;;;;;;10537207;28;20511;-76
2023/03/24 09:39:11;;;;;;;;;;;;;;;;;;10558025;27;20047;-75
2023/03/24 09:44:22;;;;;;;3.90;2.20;;;;;;;;;;10556730;28;20365;-75
2023/03/24 09:49:28;;;;;;;3.35;2.28;;;;;;;;;;10537882;28;20118;-76
2023/03/24 09:54:38;;;;;;;2.53;1.70;;;;;;;;;;10554337;28;20039;-76
2023/03/24 09:59:44;;;;;;;3.17;1.55;;;;;;;;;;10536751;28;20051;-76
2023/03/24 10:04:48;;;;;;;2.90;1.80;;;;;;;;;;10549377;28;20416;-74
2023/03/24 10:09:56;;;;;;;2.90;1.92;;;;;;;;;;10524080;28;20051;-78
2023/03/24 10:15:08;;;;;;;6.85;2.63;;;;;;;;;;10542601;28;20052;-74
2023/03/24 10:20:17;;;;;;;5.80;2.33;;;;;;;;;;10536858;28;20067;-76
2023/03/24 10:25:22;;;;;;;7.82;2.30;;;;;;;;;;10554867;28;20046;-77
2023/03/24 10:30:29;;;;;;;3.50;1.90;;;;;;;;;;10546817;28;20044;-75
2023/03/24 10:35:36;;;;;;;9.43;3.05;;;;;;;;;;10537514;28;20613;-76
2023/03/24 10:40:41;;;;;;;3.35;1.63;;;;;;;;;;10533136;28;20054;-77
2023/03/24 10:45:44;;;;;;;;;;;;;;;;;;10529200;28;20082;-76
2023/03/24 10:50:51;;;;;;;3.75;1.90;;;;;;;;;;10556872;27;20019;-77
2023/03/24 10:55:54;;;;;;;5.38;2.40;;;;;;;;;;10563557;27;20028;-78
2023/03/24 11:00:59;;;;;;;3.38;2.08;;;;;;;;;;10555973;27;20509;-78
2023/03/24 11:06:05;;;;;;;3.30;1.88;;;;;;;;;;10534048;27;20796;-77
2023/03/24 11:11:27;;;;;;;3.15;1.80;;;;;;;;;;10554944;27;20039;-76
2023/03/24 11:16:32;;;;;;;;;;;;;;;;;;10553279;27;20050;-75
2023/03/24 11:21:38;;;;;;;2.22;1.48;;;;;;;;;;10552982;27;20265;-76
2023/03/24 11:26:45;;;;;;;4.45;1.90;;;;;;;;;;10550644;27;20514;-77
2023/03/24 11:31:52;;;;;;;3.33;1.77;;;;;;;;;;10554168;27;21048;-76
2023/03/24 11:36:57;;;;;;;3.25;1.90;;;;;;;;;;10553904;27;20043;-77
2023/03/24 11:42:06;;;;;;;3.40;1.58;;;;;;;;;;10556940;27;20044;-78
2023/03/24 11:47:10;;;;;;;2.53;1.60;;;;;;;;;;10557520;27;20122;-77
2023/03/24 11:52:20;;;;;;;3.28;1.80;;;;;;;;;;10552879;27;20044;-78
2023/03/24 11:57:31;;;;;;;3.40;1.35;;;;;;;;;;10568678;27;20069;-78
2023/03/24 12:02:43;;;;;;;2.35;1.55;;;;;;;;;;10539430;27;20055;-78
2023/03/24 12:08:02;;;;;;;2.47;1.33;;;;;;;;;;10537400;27;20158;-80
2023/03/24 12:13:19;;;;;;;2.55;1.67;;;;;;;;;;10556891;27;20035;-79
2023/03/24 12:18:42;;;;;;;2.42;1.23;;;;;;;;;;10545027;27;20302;-77
2023/03/24 12:23:54;;;;;;;2.13;1.55;;;;;;;;;;10538459;27;20027;-77
2023/03/24 12:29:07;;;;;;;4.55;1.45;;;;;;;;;;10554898;27;20505;-78
2023/03/24 12:34:32;;;;;;;1.65;1.30;;;;;;;;;;10522634;28;20153;-76
2023/03/24 12:39:43;;;;;;;1.55;1.30;;;;;;;;;;10542797;28;20660;-77
2023/03/24 12:45:05;;;;;;;1.60;1.10;;;;;;;;;;10539896;27;20062;-76
2023/03/24 12:50:17;;;;;;;1.95;1.23;;;;;;;;;;10541236;27;20057;-76
2023/03/24 12:55:33;;;;;;;1.90;1.55;;;;;;;;;;10522668;27;20065;-77
2023/03/24 13:00:41;;;;;;;1.85;1.00;;;;;;;;;;10537793;27;20629;-76
2023/03/24 13:05:49;;;;;;;1.38;1.20;;;;;;;;;;10560321;28;20040;-78
2023/03/24 13:11:01;;;;;;;2.38;1.20;;;;;;;;;;10545885;27;20162;-77
2023/03/24 13:16:10;;;;;;;2.75;1.60;;;;;;;;;;10544191;27;20437;-77
2023/03/24 13:21:15;;;;;;;1.70;0.95;;;;;;;;;;10555284;27;20039;-78
2023/03/24 13:26:24;;;;;;;1.25;1.13;;;;;;;;;;10555256;27;20078;-77
2023/03/24 13:31:30;;;;;;;4.32;0.88;;;;;;;;;;10554446;27;20112;-77
2023/03/24 13:36:41;;;;;;;1.42;0.90;;;;;;;;;;10555390;27;20025;-77
2023/03/24 13:41:49;;;;;;;2.20;1.25;;;;;;;;;;10538643;27;20070;-77
2023/03/24 13:47:09;;;;;;;1.27;0.90;;;;;;;;;;10531882;28;20047;-77
2023/03/24 13:52:27;;;;;;;1.13;0.73;;;;;;;;;;10550337;28;20032;-78
2023/03/24 13:57:30;;;;;;;2.13;1.05;;;;;;;;;;10556766;28;20047;-77
2023/03/24 14:02:48;;;;;;;0.57;0.57;;;;;;;;;;10553777;28;20047;-77
2023/03/24 14:08:09;;;;;;;1.33;0.90;;;;;;;;;;10551083;28;20135;-77
2023/03/24 14:13:34;;;;;;;1.25;0.77;;;;;;;;;;10553540;28;20123;-77
2023/03/24 14:18:43;;;;;;;0.95;0.90;;;;;;;;;;10530504;28;20036;-77
2023/03/24 14:23:48;;;;;;;1.45;0.85;;;;;;;;;;10557465;27;20038;-77
2023/03/24 14:28:51;;;;;;;2.67;0.60;;;;;;;;;;10560714;27;20048;-78
2023/03/24 14:34:13;;;;;;;1.65;0.88;;;;;;;;;;10564582;27;20039;-78
2023/03/24 14:39:22;;;;;;;2.85;0.90;;;;;;;;;;10541316;27;20454;-79
2023/03/24 14:44:44;;;;;;;1.42;0.77;;;;;;;;;;10525332;27;20042;-77
2023/03/24 14:49:50;;;;;;;2.15;0.70;;;;;;;;;;10557214;27;20047;-77
2023/03/24 14:54:56;;;;;;;2.25;0.82;;;;;;;;;;10563976;27;20068;-78
2023/03/24 15:00:05;;;;;;;1.77;0.77;;;;;;;;;;10563158;27;20131;-78
2023/03/24 15:05:29;;;;;;;1.17;0.73;;;;;;;;;;10547898;27;20049;-77
2023/03/24 15:10:37;;;;;;;1.80;0.80;;;;;;;;;;10562835;27;20475;-79
2023/03/24 15:15:46;;;;;;;2.63;0.93;;;;;;;;;;10566432;27;20035;-77
2023/03/24 15:20:52;;;;;;;1.77;0.90;;;;;;;;;;10563927;27;20165;-77
2023/03/24 15:25:55;;;;;;;1.45;0.80;;;;;;;;;;10567726;27;20042;-77
2023/03/24 15:31:00;;;;;;;3.10;0.70;;;;;;;;;;10537516;27;20101;-78
2023/03/24 15:36:13;;;;;;;2.00;0.95;;;;;;;;;;10562719;27;20031;-77
2023/03/24 15:41:17;;;;;;;0.95;0.73;;;;;;;;;;10528807;27;20293;-76
2023/03/24 15:46:25;;;;;;;1.42;1.10;;;;;;;;;;10568267;27;20070;-79
2023/03/24 15:51:49;;;;;;;1.67;0.80;;;;;;;;;;10568919;27;20051;-77
2023/03/24 15:57:01;;;;;;;0.93;0.90;;;;;;;;;;10555355;27;20382;-77
2023/03/24 16:02:12;;;;;;;0.80;0.70;;;;;;;;;;10562100;27;20047;-77
2023/03/24 16:07:28;;;;;;;1.15;0.57;;;;;;;;;;10563460;27;20053;-77
2023/03/24 16:12:34;;;;;;;3.08;0.88;;;;;;;;;;10560470;27;20066;-77
2023/03/24 16:17:40;;;;;;;1.25;0.90;;;;;;;;;;10552189;27;20542;-77
2023/03/24 16:22:43;;;;;;;2.03;0.90;;;;;;;;;;10555612;27;20500;-76
2023/03/24 16:27:49;;;;;;;3.05;1.05;;;;;;;;;;10542923;27;20477;-77
2023/03/24 16:32:52;;;;;;;1.42;0.95;;;;;;;;;;10557705;27;20127;-78
2023/03/24 16:37:55;;;;;;;2.38;1.23;;;;;;;;;;10536676;27;20140;-76
2023/03/24 16:43:01;;;;;;;1.33;0.80;;;;;;;;;;10561883;27;20047;-77
2023/03/24 16:48:07;;;;;;;1.85;1.10;;;;;;;;;;10554035;27;20376;-77
2023/03/24 16:53:11;;;;;;;2.13;1.30;;;;;;;;;;10557535;27;20036;-77
2023/03/24 16:58:17;;;;;;;1.33;1.10;;;;;;;;;;10556097;27;20348;-77
2023/03/24 17:03:23;;;;;;;0.47;0.43;;;;;;;;;;10553266;27;20485;-78
2023/03/24 17:08:26;;;;;;;6.45;3.05;;;;;;;;;;10545565;27;20061;-76
2023/03/24 17:13:30;;;;;;;4.45;2.22;;;;;;;;;;10545644;27;20406;-77
2023/03/24 17:18:38;;;;;;;1.13;0.80;;;;;;;;;;10536545;27;20416;-77
2023/03/24 17:23:41;;;;;;;1.02;0.93;;;;;;;;;;10560091;27;20040;-76
2023/03/24 17:28:47;;;;;;;0.65;0.52;;;;;;;;;;10563929;27;20050;-76
2023/03/24 17:33:54;;;;;;;0.43;0.43;;;;;;;;;;10555620;27;20047;-78
2023/03/24 17:38:57;;;;;;;0.82;0.60;;;;;;;;;;10550789;27;20123;-77
2023/03/24 17:44:01;;;;;;;1.52;0.93;;;;;;;;;;10556736;27;20129;-77
2023/03/24 17:49:05;;;;;;;1.92;1.13;;;;;;;;;;10536322;28;20078;-77
2023/03/24 17:54:10;;;;;;;;;;;;;;;;;;10556057;28;20042;-77
2023/03/24 17:59:19;;;;;;;0.85;0.57;;;;;;;;;;10560454;27;19924;-76
2023/03/24 18:04:23;;;;;;;4.68;0.50;;;;;;;;;;10567759;27;20122;-77
2023/03/24 18:09:27;;;;;;;1.35;0.82;;;;;;;;;;10569622;27;20116;-78
2023/03/24 18:14:30;;;;;;;;;;;;;;;;;;10544419;27;20046;-77
2023/03/24 18:19:35;;;;;;;1.13;0.70;;;;;;;;;;10567699;27;19959;-77
2023/03/24 18:24:37;;;;;;;1.40;0.90;;;;;;;;;;10573153;27;20050;-77
2023/03/24 18:29:41;;;;;;;0.77;0.50;;;;;;;;;;10560778;27;20043;-77
2023/03/24 18:34:45;;;;;;;4.78;0.90;;;;;;;;;;10568620;27;20238;-77
2023/03/24 18:39:49;;;;;;;1.20;0.68;;;;;;;;;;10547448;27;20516;-77
2023/03/24 18:44:53;;;;;;;;;;;;;;;;;;10530302;27;20150;-77
2023/03/24 18:49:57;;;;;;;1.10;0.80;;;;;;;;;;10564844;27;20012;-77
2023/03/24 18:55:01;;;;;;;2.05;0.50;;;;;;;;;;10550881;27;20042;-77
2023/03/24 19:00:15;;;;;;;;;;;;;;;;;;10539535;27;20106;-78
2023/03/24 19:05:32;;;;;;;2.53;1.10;;;;;;;;;;10566371;27;20392;-77
2023/03/24 19:10:45;;;;;;;1.33;0.73;;;;;;;;;;10551185;27;20042;-77
2023/03/24 19:15:53;;;;;;;0.70;0.50;;;;;;;;;;10540245;27;20139;-78
2023/03/24 19:21:00;;;;;;;0.60;0.52;;;;;;;;;;10543409;27;20713;-76
2023/03/24 19:26:04;;;;;;;1.25;0.50;;;;;;;;;;10552853;27;20081;-78
2023/03/24 19:31:14;;;;;;;0.85;0.65;;;;;;;;;;10548808;27;20122;-80
2023/03/24 19:36:19;;;;;;;0.32;0.32;;;;;;;;;;10545960;27;20125;-78
2023/03/24 19:41:25;;;;;;;1.27;0.47;;;;;;;;;;10560403;27;20405;-77
2023/03/24 19:46:29;;;;;;;0.77;0.70;;;;;;;;;;10525808;28;20052;-78
2023/03/24 19:51:32;;;;;;;;;;;;;;;;;;10556128;27;20118;-76
2023/03/24 19:56:39;;;;;;;2.33;1.75;;;;;;;;;;10540563;27;19977;-77
2023/03/24 20:01:43;;;;;;;1.33;0.73;;;;;;;;;;10557818;27;20100;-77
2023/03/24 20:06:46;;;;;;;1.03;0.70;;;;;;;;;;10542930;27;20677;-78
2023/03/24 20:12:00;;;;;;;2.83;1.05;;;;;;;;;;10523688;27;20131;-79
2023/03/24 20:17:03;;;;;;;5.15;1.35;;;;;;;;;;10526816;27;20043;-78
2023/03/24 20:22:09;;;;;;;1.57;0.90;;;;;;;;;;10561468;27;20047;-78
2023/03/24 20:27:14;;;;;;;1.73;0.95;;;;;;;;;;10561389;27;20111;-76
2023/03/24 20:32:18;;;;;;;1.98;0.98;;;;;;;;;;10566932;27;20038;-78
2023/03/24 20:37:22;;;;;;;0.70;0.70;;;;;;;;;;10542008;27;20133;-77
2023/03/24 20:42:27;;;;;;;1.10;1.00;;;;;;;;;;10547116;27;20044;-77
2023/03/24 20:47:30;;;;;;;0.95;0.50;;;;;;;;;;10565244;27;20176;-77
2023/03/24 20:52:33;;;;;;;0.82;0.77;;;;;;;;;;10539693;27;20055;-77
2023/03/24 20:57:39;;;;;;;1.48;0.70;;;;;;;;;;10573105;27;20104;-77
2023/03/24 21:02:43;;;;;;;2.65;0.60;;;;;;;;;;10547978;27;20043;-77
2023/03/24 21:07:47;;;;;;;0.73;0.50;;;;;;;;;;10562352;27;20094;-76
2023/03/24 21:12:52;;;;;;;2.22;0.98;;;;;;;;;;10542118;27;20412;-77
2023/03/24 21:18:07;;;;;;;3.17;0.70;;;;;;;;;;10563429;27;20032;-77
2023/03/24 21:23:11;;;;;;;0.90;0.70;;;;;;;;;;10556161;27;20063;-78
2023/03/24 21:28:17;;;;;;;1.30;0.70;;;;;;;;;;10518219;28;20096;-78
2023/03/24 21:33:20;;;;;;;1.35;0.60;;;;;;;;;;10555284;27;20043;-78
2023/03/24 21:38:24;;;;;;;1.02;0.70;;;;;;;;;;10562786;27;20446;-77
2023/03/24 21:43:29;;;;;;;1.85;0.90;;;;;;;;;;10558657;27;20047;-77
2023/03/24 21:48:33;;;;;;;0.77;0.55;;;;;;;;;;10553271;28;20039;-77
2023/03/24 21:53:37;;;;;;;0.80;0.60;;;;;;;;;;10538007;27;20156;-78
2023/03/24 21:58:41;;;;;;;2.40;1.25;;;;;;;;;;10556902;28;20109;-75
2023/03/24 22:03:45;;;;;;;3.10;1.02;;;;;;;;;;10561063;28;20036;-76
2023/03/24 22:08:48;;;;;;;0.95;0.70;;;;;;;;;;10552190;28;20386;-77
2023/03/24 22:13:54;;;;;;;1.23;0.80;;;;;;;;;;10530165;28;20043;-77
2023/03/24 22:18:57;;;;;;;1.25;0.70;;;;;;;;;;10556765;28;20068;-77
2023/03/24 22:24:01;;;;;;;0.85;0.68;;;;;;;;;;10536112;28;20113;-78
2023/03/24 22:29:05;;;;;;;0.75;0.68;;;;;;;;;;10528602;28;20040;-77
2023/03/24 22:39:32;;;;;;;1.55;0.70;;;;;;;;;;10536080;28;20036;-77
2023/03/24 22:44:38;;;;;;;0.60;0.50;;;;;;;;;;10538009;27;20067;-78
2023/03/24 22:49:44;;;;;;;1.63;0.73;;;;;;;;;;10558230;27;20035;-76
2023/03/24 22:54:47;;;;;;;0.93;0.60;;;;;;;;;;10539110;27;20063;-77
2023/03/24 22:59:52;;;;;;;1.10;0.90;;;;;;;;;;10537901;28;20032;-77
2023/03/24 23:04:55;;;;;;;2.42;1.15;;;;;;;;;;10542006;27;20492;-77
2023/03/24 23:09:59;;;;;;;0.80;0.55;;;;;;;;;;10543996;27;20666;-77
2023/03/24 23:15:03;;;;;;;2.88;1.13;;;;;;;;;;10526451;27;20121;-77
2023/03/24 23:20:10;;;;;;;0.95;0.65;;;;;;;;;;10559432;27;20028;-77
2023/03/24 23:25:14;;;;;;;1.92;0.52;;;;;;;;;;10538396;27;20406;-78
2023/03/24 23:30:23;;;;;;;5.47;1.05;;;;;;;;;;10558012;27;20040;-77
2023/03/24 23:35:29;;;;;;;0.73;0.43;;;;;;;;;;10545300;27;20458;-76
2023/03/24 23:40:32;;;;;;;2.47;0.90;;;;;;;;;;10565132;27;20158;-76
2023/03/24 23:45:38;;;;;;;1.13;0.73;;;;;;;;;;10561361;27;20118;-76
2023/03/24 23:50:45;;;;;;;1.17;0.80;;;;;;;;;;10553530;27;20130;-76
2023/03/24 23:55:55;;;;;;;1.95;0.60;;;;;;;;;;10540374;27;20039;-76
